createdAt,value
2023-05-10T07:20:29.252Z,96208.97
2023-05-10T07:22:38.501Z,96206.47
2023-05-10T07:25:02.248Z,96214.91
2023-05-10T07:26:04.109Z,96206.38
2023-05-10T07:27:05.695Z,96213.72
2023-05-10T07:29:24.886Z,96215.41
2023-05-10T07:30:26.296Z,96212.25
2023-05-10T07:31:28.047Z,96213.16
2023-05-10T07:32:29.650Z,96211.50
2023-05-10T07:34:34.630Z,96225.34
2023-05-10T07:35:36.754Z,96229.44
2023-05-10T07:36:38.196Z,96220.47
2023-05-10T07:37:39.543Z,96212.13
2023-05-10T07:38:41.263Z,96228.72
2023-05-10T07:39:42.619Z,96221.13
2023-05-10T07:40:44.110Z,96218.97
2023-05-10T07:41:45.519Z,96228.16
2023-05-10T07:42:46.949Z,96224.97
2023-05-10T07:43:48.307Z,96224.72
2023-05-10T07:44:49.707Z,96222.25
2023-05-10T07:45:51.871Z,96214.03
2023-05-10T07:46:54.173Z,96217.69
2023-05-10T07:47:55.568Z,96213.94
2023-05-10T07:48:57.015Z,96211.25
2023-05-10T07:49:58.501Z,96211.16
2023-05-10T07:50:59.915Z,96225.38
2023-05-10T07:52:01.533Z,96225.53
2023-05-10T07:53:02.877Z,96225.09
2023-05-10T07:54:04.366Z,96229.66
2023-05-10T07:55:06.406Z,96219.84
2023-05-10T07:56:30.988Z,96220.41
2023-05-10T07:57:32.397Z,96218.44
2023-05-10T07:58:33.940Z,96224.63
2023-05-10T07:59:35.417Z,96229.03
2023-05-10T08:00:40.344Z,96226.13
2023-05-10T08:01:43.058Z,96226.88
2023-05-10T08:02:44.681Z,96231.00
2023-05-10T08:03:46.286Z,96229.13
2023-05-10T08:04:47.775Z,96225.06
2023-05-10T08:05:49.261Z,96224.06
2023-05-10T08:06:50.791Z,96238.94
2023-05-10T08:07:52.162Z,96229.56
2023-05-10T08:08:54.971Z,96228.72
2023-05-10T08:09:56.475Z,96234.81
2023-05-10T08:10:57.890Z,96230.41
2023-05-10T08:22:05.380Z,96247.09
2023-05-10T08:23:07.144Z,96245.50
2023-05-10T08:24:08.556Z,96250.84
2023-05-10T08:25:10.037Z,96252.25
2023-05-10T08:26:11.892Z,96248.59
2023-05-10T08:27:13.656Z,96245.75
2023-05-10T08:28:15.104Z,96253.47
2023-05-10T08:29:17.081Z,96242.97
2023-05-10T08:30:18.583Z,96243.78
2023-05-10T08:31:20.418Z,96260.63
2023-05-10T08:32:22.082Z,96245.00
2023-05-10T08:33:23.620Z,96245.59
2023-05-10T08:34:25.314Z,96250.13
2023-05-10T08:35:26.923Z,96255.13
2023-05-10T08:36:28.646Z,96258.84
2023-05-10T08:37:31.136Z,96252.59
2023-05-10T08:38:32.527Z,96255.97
2023-05-10T08:39:36.805Z,96255.66
2023-05-10T08:40:38.748Z,96252.75
2023-05-10T08:41:41.360Z,96222.53
2023-05-10T08:42:48.910Z,96254.72
2023-05-10T08:43:51.963Z,96263.91
2023-05-10T08:44:54.774Z,96258.00
2023-05-10T08:45:59.465Z,96256.41
2023-05-10T08:47:05.810Z,96258.34
2023-05-10T08:48:09.148Z,96255.22
2023-05-10T08:49:14.111Z,96255.09
2023-05-10T08:50:16.446Z,96256.53
2023-05-10T08:51:27.709Z,96251.78
2023-05-10T08:52:30.990Z,96261.28
2023-05-10T08:53:36.337Z,96255.81
2023-05-10T08:54:39.042Z,96248.16
2023-05-10T08:55:42.967Z,96265.00
2023-05-10T08:56:44.364Z,96265.97
2023-05-10T08:57:46.362Z,96263.44
2023-05-10T08:58:48.173Z,96256.25
2023-05-10T08:59:49.575Z,96257.50
2023-05-10T09:00:54.648Z,96261.06
2023-05-10T09:01:58.762Z,96273.59
2023-05-10T09:03:01.230Z,96270.41
2023-05-10T09:04:03.864Z,96266.75
2023-05-10T09:05:06.355Z,96265.91
2023-05-10T09:06:08.810Z,96271.59
2023-05-10T09:07:11.842Z,96260.38
2023-05-10T09:08:16.780Z,96257.13
2023-05-10T09:09:19.367Z,96263.69
2023-05-10T09:10:21.625Z,96267.06
2023-05-10T09:11:23.416Z,96262.06
2023-05-10T09:12:24.966Z,96269.66
2023-05-10T09:13:27.093Z,96273.53
2023-05-10T09:14:28.707Z,96274.03
2023-05-10T09:15:30.106Z,96266.28
2023-05-10T09:16:31.648Z,96277.44
2023-05-10T09:17:33.076Z,96278.38
2023-05-10T09:18:34.589Z,96274.22
2023-05-10T09:19:36.035Z,96281.94
2023-05-10T09:20:37.501Z,96280.19
2023-05-10T09:21:39.319Z,96282.53
2023-05-10T09:22:41.275Z,96279.50
2023-05-10T09:23:48.680Z,96278.84
2023-05-10T09:25:14.678Z,96276.09
2023-05-10T09:26:16.959Z,96284.34
2023-05-10T09:27:27.171Z,96286.44
2023-05-10T09:28:32.078Z,96285.69
2023-05-10T09:29:44.060Z,96288.22
2023-05-10T09:30:54.658Z,96281.19
2023-05-10T09:31:56.210Z,96294.84
2023-05-10T09:32:59.375Z,96287.84
2023-05-10T09:34:00.777Z,96293.88
2023-05-10T09:35:07.998Z,96278.06
2023-05-10T09:36:09.681Z,96288.03
2023-05-10T09:37:11.641Z,96293.22
2023-05-10T09:38:13.096Z,96280.28
2023-05-10T09:39:14.463Z,96287.94
2023-05-10T09:40:20.807Z,96293.47
2023-05-10T09:41:24.225Z,96290.09
2023-05-10T09:42:25.724Z,96288.78
2023-05-10T09:43:28.309Z,96294.16
2023-05-10T09:44:29.825Z,96286.13
2023-05-10T09:45:34.165Z,96296.53
2023-05-10T09:46:37.835Z,96288.78
2023-05-10T09:47:39.553Z,96288.78
2023-05-10T09:48:46.949Z,96281.28
2023-05-10T09:49:52.270Z,96295.53
2023-05-10T09:50:59.857Z,96296.19
2023-05-10T09:52:08.872Z,96291.34
2023-05-10T09:53:10.334Z,96298.72
2023-05-10T09:54:13.187Z,96290.59
2023-05-10T09:55:14.913Z,96291.94
2023-05-10T09:56:34.541Z,96294.19
2023-05-10T09:57:36.102Z,96282.25
2023-05-10T09:58:41.397Z,96292.25
2023-05-10T09:59:44.147Z,96294.88
2023-05-10T10:00:48.588Z,96297.84
2023-05-10T10:01:52.134Z,96298.59
2023-05-10T10:03:01.055Z,96291.78
2023-05-10T10:04:05.066Z,96303.03
2023-05-10T10:05:08.188Z,96304.69
2023-05-10T10:06:18.700Z,96298.91
2023-05-10T10:07:26.447Z,96295.75
2023-05-10T10:08:28.030Z,96305.97
2023-05-10T10:09:29.747Z,96307.72
2023-05-10T10:10:33.034Z,96314.25
2023-05-10T10:11:38.818Z,96305.50
2023-05-10T10:12:41.748Z,96305.22
2023-05-10T10:13:43.703Z,96303.34
2023-05-10T10:14:46.885Z,96290.44
2023-05-10T10:15:51.978Z,96320.34
2023-05-10T10:17:06.476Z,96313.50
2023-05-10T10:18:13.731Z,96317.81
2023-05-10T10:19:16.293Z,96315.47
2023-05-10T10:20:19.275Z,96312.44
2023-05-10T10:23:26.742Z,96313.03
2023-05-10T10:26:12.531Z,96316.94
2023-05-10T10:29:06.534Z,96315.84
2023-05-10T10:32:10.328Z,96314.13
2023-05-10T10:33:33.757Z,96316.19
2023-05-10T10:34:35.849Z,96311.34
2023-05-10T10:35:37.746Z,96311.34
2023-05-10T10:36:45.878Z,96316.63
2023-05-10T10:37:48.965Z,96320.88
2023-05-10T10:39:00.385Z,96310.47
2023-05-10T10:40:01.831Z,96308.56
2023-05-10T10:41:08.930Z,96304.22
2023-05-10T10:42:10.598Z,96305.91
2023-05-10T10:43:25.579Z,96303.31
2023-05-10T10:44:39.984Z,96291.59
2023-05-10T10:45:42.355Z,96300.78
2023-05-10T10:47:12.843Z,96296.81
2023-05-10T10:48:22.554Z,96295.41
2023-05-10T10:49:24.081Z,96295.34
2023-05-10T10:50:25.452Z,96299.09
2023-05-10T10:51:29.980Z,96304.59
2023-05-10T10:52:46.961Z,96306.84
2023-05-10T10:53:49.269Z,96312.25
2023-05-10T10:54:52.374Z,96307.38
2023-05-10T10:56:10.571Z,96310.19
2023-05-10T10:57:15.746Z,96312.44
2023-05-10T10:58:33.138Z,96313.19
2023-05-10T10:59:34.504Z,96315.06
2023-05-10T11:00:41.853Z,96319.94
2023-05-10T11:02:54.830Z,96317.47
2023-05-10T11:04:16.634Z,96317.25
2023-05-10T11:06:34.771Z,96319.28
2023-05-10T11:07:36.239Z,96314.25
2023-05-10T11:08:47.010Z,96311.53
2023-05-10T11:09:48.754Z,96324.53
2023-05-10T11:11:09.573Z,96320.78
2023-05-10T11:12:10.959Z,96326.91
2023-05-10T11:13:12.367Z,96322.25
2023-05-10T11:14:14.219Z,96325.16
2023-05-10T11:15:15.900Z,96326.09
2023-05-10T11:16:24.507Z,96326.34
2023-05-10T11:17:30.130Z,96326.19
2023-05-10T11:18:31.691Z,96326.66
2023-05-10T11:19:33.222Z,96329.84
2023-05-10T11:20:40.998Z,96321.97
2023-05-10T11:21:51.192Z,96325.88
2023-05-10T11:22:53.933Z,96321.97
2023-05-10T11:24:00.518Z,96322.19
2023-05-10T11:25:02.046Z,96304.84
2023-05-10T11:26:03.396Z,96322.56
2023-05-10T11:27:04.995Z,96323.56
2023-05-10T11:28:07.173Z,96314.59
2023-05-10T11:29:08.701Z,96327.72
2023-05-10T11:30:13.645Z,96321.63
2023-05-10T11:31:16.736Z,96323.34
2023-05-10T11:32:18.345Z,96327.53
2023-05-10T11:33:20.792Z,96314.03
2023-05-10T11:34:34.624Z,96319.22
2023-05-10T11:35:43.214Z,96315.19
2023-05-10T11:36:52.917Z,96322.41
2023-05-10T11:37:54.482Z,96323.50
2023-05-10T11:38:57.239Z,96326.09
2023-05-10T11:39:58.652Z,96325.41
2023-05-10T11:41:00.302Z,96326.13
2023-05-10T11:42:01.928Z,96310.78
2023-05-10T11:43:04.120Z,96326.41
2023-05-10T11:44:05.638Z,96322.97
2023-05-10T11:45:08.042Z,96325.59
2023-05-10T11:46:12.153Z,96303.50
2023-05-10T11:47:13.661Z,96323.28
2023-05-10T11:48:15.327Z,96326.78
2023-05-10T11:49:16.749Z,96309.16
2023-05-10T11:50:19.274Z,96317.75
2023-05-10T11:51:22.399Z,96325.19
2023-05-10T11:52:24.899Z,96322.75
2023-05-10T11:53:27.999Z,96320.84
2023-05-10T11:54:29.404Z,96321.69
2023-05-10T11:55:34.397Z,96320.94
2023-05-10T11:56:36.061Z,96316.50
2023-05-10T11:57:39.457Z,96328.63
2023-05-10T11:58:41.006Z,96312.88
2023-05-10T11:59:43.299Z,96319.53
2023-05-10T12:00:45.374Z,96329.34
2023-05-10T12:01:47.009Z,96332.06
2023-05-10T12:02:49.544Z,96334.50
2023-05-10T12:03:52.506Z,96336.19
2023-05-10T12:04:55.901Z,96330.78
2023-05-10T12:05:58.445Z,96342.56
2023-05-10T12:07:00.012Z,96345.88
2023-05-10T12:08:21.070Z,96340.28
2023-05-10T12:09:35.385Z,96340.09
2023-05-10T12:10:41.622Z,96346.97
2023-05-10T12:11:44.524Z,96346.22
2023-05-10T12:12:51.046Z,96341.06
2023-05-10T12:13:52.700Z,96346.59
2023-05-10T12:14:54.120Z,96341.13
2023-05-10T12:15:58.749Z,96341.44
2023-05-10T12:17:00.257Z,96341.06
2023-05-10T12:18:02.269Z,96337.66
2023-05-10T12:19:03.869Z,96331.84
2023-05-10T12:20:22.829Z,96337.03
2023-05-10T12:21:24.588Z,96347.19
2023-05-10T12:22:26.044Z,96343.75
2023-05-10T12:23:27.546Z,96344.69
2023-05-10T12:24:28.960Z,96340.63
2023-05-10T12:25:32.724Z,96345.50
2023-05-10T12:26:36.466Z,96333.50
2023-05-10T12:27:38.126Z,96334.31
2023-05-10T12:28:40.457Z,96341.19
2023-05-10T12:29:45.444Z,96332.94
2023-05-10T12:30:50.005Z,96339.56
2023-05-10T12:31:59.428Z,96347.03
2023-05-10T12:33:04.307Z,96334.50
2023-05-10T12:34:05.757Z,96340.41
2023-05-10T12:35:08.280Z,96343.03
2023-05-10T12:36:11.409Z,96337.91
2023-05-10T12:37:13.296Z,96343.34
2023-05-10T12:38:34.700Z,96334.13
2023-05-10T12:39:44.134Z,96345.25
2023-05-10T12:40:45.577Z,96328.41
2023-05-10T12:41:47.115Z,96315.38
2023-05-10T12:42:49.653Z,96334.16
2023-05-10T12:43:52.922Z,96343.72
2023-05-10T12:44:57.947Z,96335.44
2023-05-10T12:46:00.201Z,96331.47
2023-05-10T12:47:01.581Z,96339.66
2023-05-10T12:48:03.390Z,96341.38
2023-05-10T12:49:08.964Z,96336.28
2023-05-10T12:50:11.962Z,96339.25
2023-05-10T12:51:16.683Z,96336.78
2023-05-10T12:52:18.480Z,96336.72
2023-05-10T12:53:20.162Z,96340.28
2023-05-10T12:54:21.707Z,96323.59
2023-05-10T12:55:23.265Z,96335.78
2023-05-10T12:56:24.846Z,96345.13
2023-05-10T12:57:31.900Z,96311.88
2023-05-10T12:58:35.989Z,96322.66
2023-05-10T12:59:38.369Z,96344.09
2023-05-10T13:00:39.950Z,96329.69
2023-05-10T13:01:41.706Z,96329.41
2023-05-10T13:02:44.405Z,96338.47
2023-05-10T13:03:46.412Z,96332.53
2023-05-10T13:04:50.920Z,96327.00
2023-05-10T13:05:52.981Z,96339.50
2023-05-10T13:06:56.455Z,96338.34
2023-05-10T13:07:57.804Z,96332.16
2023-05-10T13:08:59.180Z,96337.00
2023-05-10T13:10:00.600Z,96295.75
2023-05-10T13:11:03.542Z,96327.94
2023-05-10T13:12:09.433Z,96328.78
2023-05-10T13:13:11.627Z,96329.75
2023-05-10T13:14:14.333Z,96331.75
2023-05-10T13:15:15.865Z,96335.00
2023-05-10T13:16:17.312Z,96313.81
2023-05-10T13:17:18.759Z,96319.34
2023-05-10T13:18:20.452Z,96339.31
2023-05-10T13:19:21.871Z,96334.47
2023-05-10T13:20:23.290Z,96332.78
2023-05-10T13:21:25.982Z,96337.63
2023-05-10T13:22:39.311Z,96327.00
2023-05-10T13:23:41.800Z,96340.88
2023-05-10T13:24:43.136Z,96340.16
2023-05-10T13:25:44.504Z,96333.84
2023-05-10T13:26:45.937Z,96341.09
2023-05-10T13:27:47.397Z,96336.53
2023-05-10T13:28:49.839Z,96332.97
2023-05-10T13:29:51.451Z,96338.56
2023-05-10T13:30:52.847Z,96335.41
2023-05-10T13:31:54.459Z,96336.59
2023-05-10T13:32:56.115Z,96341.72
2023-05-10T13:33:57.558Z,96333.72
2023-05-10T13:34:58.965Z,96345.31
2023-05-10T13:36:00.316Z,96334.81
2023-05-10T13:37:01.872Z,96323.81
2023-05-10T13:38:03.413Z,96335.31
2023-05-10T13:39:06.197Z,96330.81
2023-05-10T13:40:08.158Z,96311.34
2023-05-10T13:41:12.705Z,96336.06
2023-05-10T13:42:14.399Z,96331.94
2023-05-10T13:43:16.185Z,96331.63
2023-05-10T13:44:17.598Z,96330.81
2023-05-10T13:45:19.129Z,96326.38
2023-05-10T13:46:20.902Z,96329.41
2023-05-10T13:47:23.248Z,96327.94
2023-05-10T13:48:24.767Z,96326.34
2023-05-10T13:49:26.160Z,96324.13
2023-05-10T13:50:27.973Z,96323.91
2023-05-10T13:51:29.417Z,96326.91
2023-05-10T13:52:30.817Z,96325.41
2023-05-10T13:53:32.234Z,96321.75
2023-05-10T13:54:35.331Z,96324.50
2023-05-10T13:55:36.733Z,96323.31
2023-05-10T13:56:38.504Z,96326.91
2023-05-10T13:57:39.869Z,96330.03
2023-05-10T13:58:42.336Z,96315.84
2023-05-10T13:59:43.673Z,96327.00
2023-05-10T14:00:45.017Z,96320.66
2023-05-10T14:01:46.595Z,96328.91
2023-05-10T14:02:48.744Z,96319.53
2023-05-10T14:03:50.596Z,96315.00
2023-05-10T14:04:52.632Z,96320.06
2023-05-10T14:05:54.199Z,96320.13
2023-05-10T14:06:55.831Z,96323.81
2023-05-10T14:07:58.182Z,96327.22
2023-05-10T14:08:59.753Z,96315.66
2023-05-10T14:10:01.642Z,96315.31
2023-05-10T14:11:03.371Z,96313.94
2023-05-10T14:12:05.001Z,96316.69
2023-05-10T14:13:07.164Z,96319.53
2023-05-10T14:14:08.611Z,96313.84
2023-05-10T14:15:12.350Z,96315.75
2023-05-10T14:16:15.659Z,96309.53
2023-05-10T14:17:17.070Z,96312.69
2023-05-10T14:18:18.676Z,96319.75
2023-05-10T14:19:20.224Z,96318.47
2023-05-10T14:20:21.672Z,96320.91
2023-05-10T14:21:23.024Z,96307.84
2023-05-10T14:22:24.569Z,96307.06
2023-05-10T14:23:26.636Z,96311.41
2023-05-10T14:24:28.126Z,96304.03
2023-05-10T14:25:29.520Z,96312.38
2023-05-10T14:26:31.201Z,96310.97
2023-05-10T14:27:33.424Z,96310.47
2023-05-10T14:28:34.918Z,96307.41
2023-05-10T14:29:36.499Z,96301.63
2023-05-10T14:30:37.902Z,96307.53
2023-05-10T14:31:41.285Z,96306.28
2023-05-10T14:32:42.911Z,96306.16
2023-05-10T14:33:44.319Z,96300.59
2023-05-10T14:34:45.850Z,96308.91
2023-05-10T14:35:47.813Z,96307.13
2023-05-10T14:36:49.293Z,96304.38
2023-05-10T14:37:51.198Z,96307.94
2023-05-10T14:38:52.592Z,96309.22
2023-05-10T14:39:54.635Z,96307.44
2023-05-10T14:40:56.061Z,96304.16
2023-05-10T14:41:57.483Z,96302.41
2023-05-10T14:42:58.997Z,96297.84
2023-05-10T14:44:00.351Z,96294.34
2023-05-10T14:45:01.800Z,96299.72
2023-05-10T14:46:03.326Z,96301.25
2023-05-10T14:47:04.913Z,96302.28
2023-05-10T14:48:06.916Z,96304.69
2023-05-10T14:49:08.466Z,96297.13
2023-05-10T14:50:10.085Z,96302.16
2023-05-10T14:51:11.972Z,96303.09
2023-05-10T14:52:13.425Z,96297.53
2023-05-10T14:53:15.001Z,96300.59
2023-05-10T14:54:16.465Z,96294.19
2023-05-10T14:55:18.198Z,96296.16
2023-05-10T14:56:19.804Z,96302.16
2023-05-10T14:57:21.234Z,96305.22
2023-05-10T14:58:22.714Z,96304.16
2023-05-10T14:59:24.276Z,96293.34
2023-05-10T15:00:26.119Z,96304.16
2023-05-10T15:01:28.142Z,96303.03
2023-05-10T15:02:31.475Z,96308.59
2023-05-10T15:03:33.219Z,96309.94
2023-05-10T15:04:34.945Z,96300.56
2023-05-10T15:05:38.349Z,96294.16
2023-05-10T15:06:39.825Z,96312.06
2023-05-10T15:07:41.396Z,96307.53
2023-05-10T15:08:42.817Z,96310.06
2023-05-10T15:09:44.209Z,96313.22
2023-05-10T15:10:45.649Z,96310.28
2023-05-10T15:11:47.032Z,96310.91
2023-05-10T15:12:48.492Z,96311.53
2023-05-10T15:13:49.878Z,96306.09
2023-05-10T15:14:51.236Z,96308.19
2023-05-10T15:15:52.794Z,96308.59
2023-05-10T15:16:54.264Z,96303.34
2023-05-10T15:17:55.734Z,96314.09
2023-05-10T15:18:57.130Z,96309.75
2023-05-10T15:19:58.535Z,96310.16
2023-05-10T15:20:59.916Z,96309.53
2023-05-10T15:22:01.390Z,96314.25
2023-05-10T15:23:02.914Z,96308.38
2023-05-10T15:24:04.780Z,96305.13
2023-05-10T15:25:06.779Z,96303.75
2023-05-10T15:26:08.863Z,96309.00
2023-05-10T15:27:10.315Z,96303.13
2023-05-10T15:28:11.774Z,96313.53
2023-05-10T15:29:20.824Z,96308.47
2023-05-10T15:30:22.311Z,96311.44
2023-05-10T15:31:23.766Z,96313.44
2023-05-10T15:32:25.217Z,96295.13
2023-05-10T15:33:28.352Z,96303.22
2023-05-10T15:34:30.372Z,96298.28
2023-05-10T15:35:34.554Z,96305.31
2023-05-10T15:36:35.881Z,96315.09
2023-05-10T15:37:38.109Z,96307.75
2023-05-10T15:38:39.465Z,96312.38
2023-05-10T15:39:40.842Z,96303.44
2023-05-10T15:40:42.469Z,96302.28
2023-05-10T15:41:43.838Z,96313.22
2023-05-10T15:42:45.474Z,96310.50
2023-05-10T15:43:46.812Z,96312.78
2023-05-10T15:44:51.107Z,96313.84
2023-05-10T15:45:52.452Z,96304.91
2023-05-10T15:46:53.853Z,96313.63
2023-05-10T15:47:55.400Z,96319.13
2023-05-10T15:48:58.584Z,96312.28
2023-05-10T15:49:59.985Z,96313.09
2023-05-10T15:51:01.381Z,96310.28
2023-05-10T15:52:03.121Z,96304.28
2023-05-10T15:53:04.520Z,96313.44
2023-05-10T15:54:08.260Z,96313.09
2023-05-10T15:55:13.077Z,96318.91
2023-05-10T15:56:15.486Z,96322.97
2023-05-10T15:57:17.403Z,96313.22
2023-05-10T15:58:19.246Z,96321.84
2023-05-10T15:59:21.017Z,96308.25
2023-05-10T16:00:22.395Z,96309.53
2023-05-10T16:01:23.826Z,96316.25
2023-05-10T16:02:25.530Z,96314.69
2023-05-10T16:03:27.124Z,96317.41
2023-05-10T16:04:28.460Z,96319.88
2023-05-10T16:05:32.617Z,96315.41
2023-05-10T16:06:37.916Z,96322.78
